Time;durP1;ratioP1;P1;durP2;ratioP2;P2;SDS_P1;SDS_P2;PMS_P1;PMS_P2;Temp;Humidity;BMP_temperature;BMP_pressure;BME280_temperature;BME280_humidity;BME280_pressure;Samples;Min_cycle;Max_cycle;Signal;HPM_P1;HPM_P2
2023/07/05 00:01:15;;;;;;;11.02;7.10;;;;;;;17.33;100.00;99978.91;4961375;28;20144;-78
2023/07/05 00:03:42;;;;;;;10.15;7.20;;;;;;;17.55;100.00;99977.47;4968267;28;20102;-78
2023/07/05 00:06:11;;;;;;;11.00;7.22;;;;;;;17.31;100.00;99941.28;4960685;28;20082;-77
2023/07/05 00:08:40;;;;;;;14.07;7.35;;;;;;;17.37;100.00;99936.97;4968416;28;20067;-77
2023/07/05 00:11:15;;;;;;;10.88;6.55;;;;;;;17.51;100.00;99970.19;4956150;28;20121;-77
2023/07/05 00:13:43;;;;;;;9.50;7.20;;;;;;;17.52;100.00;99967.31;4988569;23;20515;-80
2023/07/05 00:16:10;;;;;;;9.98;6.95;;;;;;;17.50;100.00;99958.78;4969813;28;20083;-79
2023/07/05 00:18:38;;;;;;;9.60;6.88;;;;;;;17.47;100.00;99953.97;4962960;29;20546;-81
2023/07/05 00:21:07;;;;;;;11.23;6.75;;;;;;;17.55;100.00;99955.50;4957073;29;20110;-81
2023/07/05 00:23:35;;;;;;;10.60;7.18;;;;;;;17.54;100.00;99953.88;4960741;28;20125;-81
2023/07/05 00:26:02;;;;;;;9.40;6.97;;;;;;;17.61;100.00;99951.19;4963227;28;20051;-84
2023/07/05 00:28:29;;;;;;;10.18;7.03;;;;;;;17.69;100.00;99941.16;4964078;29;20137;-82
2023/07/05 00:30:56;;;;;;;8.40;6.80;;;;;;;17.51;100.00;99939.25;4958540;28;20068;-83
2023/07/05 00:33:23;;;;;;;10.38;6.80;;;;;;;17.67;100.00;99939.75;4962002;28;20111;-82
2023/07/05 00:35:51;;;;;;;8.98;7.20;;;;;;;17.53;100.00;99931.91;4960642;28;20078;-83
2023/07/05 00:38:19;;;;;;;9.25;6.45;;;;;;;17.48;100.00;99923.03;4964256;29;20126;-85
2023/07/05 00:40:47;;;;;;;8.32;6.43;;;;;;;17.41;100.00;99917.81;4965135;28;20075;-83
2023/07/05 00:43:15;;;;;;;8.63;6.43;;;;;;;17.47;100.00;99922.22;4963264;28;20134;-82
2023/07/05 00:45:56;;;;;;;8.63;6.25;;;;;;;17.53;100.00;99912.59;4956138;29;20043;-84
2023/07/05 00:48:31;;;;;;;10.80;6.63;;;;;;;17.56;100.00;99918.25;4961473;28;20083;-84
2023/07/05 00:51:01;;;;;;;7.32;6.50;;;;;;;17.49;100.00;99900.81;4960634;28;20102;-84
2023/07/05 00:53:29;;;;;;;8.23;6.40;;;;;;;17.41;100.00;99911.72;4961471;28;20047;-83
2023/07/05 00:56:01;;;;;;;8.63;6.65;;;;;;;17.36;100.00;99901.78;4957107;28;20130;-84
2023/07/05 00:58:28;;;;;;;9.65;6.15;;;;;;;17.39;100.00;99893.41;4960021;28;20384;-84
2023/07/05 01:00:56;;;;;;;7.80;6.28;;;;;;;17.26;100.00;99890.88;4958991;28;20075;-84
2023/07/05 01:03:26;;;;;;;9.85;6.03;;;;;;;17.27;100.00;99897.78;4959938;28;20050;-84
2023/07/05 01:05:57;;;;;;;10.52;6.30;;;;;;;17.41;100.00;99907.22;4959054;28;20058;-83
2023/07/05 01:08:25;;;;;;;9.60;6.72;;;;;;;17.28;100.00;99882.72;4958024;29;20081;-82
2023/07/05 01:11:00;;;;;;;7.78;6.18;;;;;;;17.29;100.00;99890.44;4958020;28;20077;-84
2023/07/05 01:13:31;;;;;;;8.13;6.63;;;;;;;17.27;100.00;99887.22;4958283;28;20134;-81
2023/07/05 01:16:13;;;;;;;13.82;6.80;;;;;;;17.26;100.00;99893.53;4959303;28;20079;-84
2023/07/05 01:18:47;;;;;;;8.23;6.95;;;;;;;17.25;100.00;99887.44;4961476;28;20138;-85
2023/07/05 01:21:30;;;;;;;8.68;6.65;;;;;;;17.22;100.00;99887.88;4961003;28;20103;-83
2023/07/05 01:24:30;;;;;;;9.35;6.47;;;;;;;17.23;100.00;99893.97;4959904;29;20476;-82
2023/07/05 01:27:47;;;;;;;8.15;6.60;;;;;;;17.29;100.00;99890.44;4966020;29;20427;-83
2023/07/05 01:30:35;;;;;;;6.97;6.00;;;;;;;17.22;100.00;99887.06;4955660;29;20087;-82
2023/07/05 01:33:07;;;;;;;7.95;6.22;;;;;;;17.26;100.00;99880.31;4968147;28;20050;-82
2023/07/05 01:35:40;;;;;;;8.57;6.45;;;;;;;17.25;100.00;99865.47;4963935;28;20538;-82
2023/07/05 01:38:06;;;;;;;8.98;6.43;;;;;;;17.24;100.00;99867.31;4962487;29;20078;-83
2023/07/05 01:40:56;;;;;;;9.90;6.20;;;;;;;17.18;100.00;99867.38;4965625;28;20576;-83
2023/07/05 01:43:25;;;;;;;7.75;6.00;;;;;;;17.31;100.00;99871.72;4961749;28;20047;-84
2023/07/05 01:46:09;;;;;;;9.00;5.97;;;;;;;17.14;100.00;99866.19;4962490;28;20150;-84
2023/07/05 01:48:50;;;;;;;8.35;5.82;;;;;;;17.13;100.00;99864.56;4963123;29;20143;-83
2023/07/05 01:51:27;;;;;;;8.32;5.75;;;;;;;17.05;100.00;99864.81;4960608;29;20130;-82
2023/07/05 01:54:00;;;;;;;7.53;6.07;;;;;;;17.13;100.00;99861.91;4960320;29;20079;-82
2023/07/05 01:56:35;;;;;;;8.45;5.78;;;;;;;17.14;100.00;99851.13;4963853;29;20074;-83
2023/07/05 01:59:05;;;;;;;10.93;5.72;;;;;;;17.18;100.00;99848.84;4961525;28;20054;-82
2023/07/05 02:01:34;;;;;;;7.35;5.50;;;;;;;17.24;100.00;99832.13;4959283;28;20058;-83
2023/07/05 02:04:06;;;;;;;8.95;5.60;;;;;;;17.27;100.00;99830.88;4959566;28;20089;-82
2023/07/05 02:06:36;;;;;;;7.70;5.68;;;;;;;17.29;100.00;99826.19;4960295;29;20055;-83
2023/07/05 02:09:03;;;;;;;7.45;4.85;;;;;;;17.41;100.00;99827.06;4960675;28;20115;-82
2023/07/05 02:11:29;;;;;;;7.07;5.13;;;;;;;17.38;100.00;99823.03;4957742;29;20062;-82
2023/07/05 02:13:57;;;;;;;12.20;5.38;;;;;;;17.42;100.00;99824.22;4958452;29;20053;-80
2023/07/05 02:16:24;;;;;;;12.07;5.07;;;;;;;17.41;100.00;99817.31;4957900;28;20138;-82
2023/07/05 02:18:50;;;;;;;7.20;5.03;;;;;;;17.43;100.00;99819.75;4958418;28;20075;-82
2023/07/05 02:21:18;;;;;;;6.35;4.70;;;;;;;17.46;100.00;99820.09;4958973;28;20078;-81
2023/07/05 02:23:47;;;;;;;8.73;4.90;;;;;;;17.45;100.00;99826.41;4958833;28;20134;-85
2023/07/05 02:26:14;;;;;;;5.55;4.60;;;;;;;17.43;100.00;99814.44;4959852;28;20051;-81
2023/07/05 02:28:40;;;;;;;6.97;4.80;;;;;;;17.42;100.00;99823.41;4961384;29;20083;-81
2023/07/05 02:31:13;;;;;;;8.70;4.80;;;;;;;17.44;100.00;99829.28;4956324;28;20073;-83
2023/07/05 02:33:40;;;;;;;9.60;4.68;;;;;;;17.42;100.00;99813.63;4958316;28;20138;-83
2023/07/05 02:36:10;;;;;;;8.57;4.60;;;;;;;17.42;100.00;99811.00;4958476;29;20054;-83
2023/07/05 02:38:39;;;;;;;5.95;4.13;;;;;;;17.40;100.00;99826.28;4956951;28;20142;-83
2023/07/05 02:41:05;;;;;;;6.95;4.38;;;;;;;17.38;100.00;99828.31;4953866;29;20093;-82
2023/07/05 02:43:33;;;;;;;5.40;4.45;;;;;;;17.37;100.00;99808.19;4959033;28;20472;-83
2023/07/05 02:45:59;;;;;;;6.50;4.20;;;;;;;17.30;100.00;99804.81;4956699;28;20074;-80
2023/07/05 02:48:26;;;;;;;4.88;4.00;;;;;;;17.41;100.00;99814.66;4958292;29;20118;-81
2023/07/05 02:50:52;;;;;;;7.93;4.35;;;;;;;17.42;100.00;99826.84;4958480;28;20448;-82
2023/07/05 02:53:19;;;;;;;6.43;3.80;;;;;;;17.34;100.00;99828.97;4957592;28;20061;-83
2023/07/05 02:55:47;;;;;;;4.97;3.90;;;;;;;17.27;100.00;99830.88;4963475;28;20469;-82
2023/07/05 02:58:14;;;;;;;5.38;3.88;;;;;;;17.22;100.00;99826.25;4971341;28;20043;-80
2023/07/05 03:00:40;;;;;;;5.63;3.40;;;;;;;17.14;100.00;99847.66;4960126;28;20134;-83
2023/07/05 03:03:07;;;;;;;6.85;3.40;;;;;;;17.13;100.00;99856.63;4956990;28;20135;-84
2023/07/05 03:05:33;;;;;;;6.60;3.63;;;;;;;17.08;100.00;99861.75;4956902;28;20058;-82
2023/07/05 03:08:00;;;;;;;5.10;3.75;;;;;;;17.07;100.00;99868.88;4955810;28;20052;-80
2023/07/05 03:10:26;;;;;;;4.20;3.25;;;;;;;16.98;100.00;99885.25;4954564;28;20047;-81
2023/07/05 03:12:55;;;;;;;4.28;3.15;;;;;;;16.90;100.00;99879.19;4956087;28;20133;-80
2023/07/05 03:15:21;;;;;;;5.82;3.13;;;;;;;16.81;100.00;99884.94;4958525;28;20585;-79
2023/07/05 03:17:48;;;;;;;7.10;3.72;;;;;;;16.82;100.00;99884.75;4961653;28;20057;-80
2023/07/05 03:20:14;;;;;;;4.38;3.25;;;;;;;16.72;100.00;99899.44;4961725;28;20488;-81
2023/07/05 03:22:41;;;;;;;6.43;3.13;;;;;;;16.70;100.00;99904.13;4962041;28;20052;-81
2023/07/05 03:25:08;;;;;;;6.25;3.47;;;;;;;16.62;100.00;99902.50;4963732;28;20107;-82
2023/07/05 03:27:36;;;;;;;8.30;3.60;;;;;;;16.45;100.00;99901.41;4962757;28;20102;-81
2023/07/05 03:30:05;;;;;;;4.70;3.25;;;;;;;16.30;100.00;99922.00;4961214;28;20479;-82
2023/07/05 03:32:31;;;;;;;5.15;3.45;;;;;;;16.24;100.00;99932.38;4959958;28;20078;-81
2023/07/05 03:34:58;;;;;;;4.57;2.97;;;;;;;16.12;100.00;99941.97;4961906;28;21560;-82
2023/07/05 03:37:24;;;;;;;7.25;3.47;;;;;;;16.04;100.00;99941.41;4961034;28;20071;-81
2023/07/05 03:39:53;;;;;;;7.53;3.88;;;;;;;15.99;100.00;99949.13;4960535;28;20082;-81
2023/07/05 03:42:19;;;;;;;4.20;3.30;;;;;;;15.81;100.00;99955.06;4961372;28;20047;-81
2023/07/05 03:44:46;;;;;;;6.60;3.50;;;;;;;15.81;100.00;99957.69;4959419;28;20137;-82
2023/07/05 03:47:14;;;;;;;5.75;3.63;;;;;;;15.60;100.00;99972.72;4961063;28;20562;-82
2023/07/05 03:49:40;;;;;;;5.88;3.97;;;;;;;15.59;99.04;99976.41;4960415;28;20059;-80
2023/07/05 03:52:07;;;;;;;6.78;3.45;;;;;;;15.42;96.39;99959.34;4960112;28;20317;-80
2023/07/05 03:54:34;;;;;;;5.53;3.45;;;;;;;15.28;94.77;99963.00;4961643;28;20538;-81
2023/07/05 03:57:01;;;;;;;7.03;3.85;;;;;;;15.14;95.06;99961.34;4961780;28;20058;-80
2023/07/05 03:59:27;;;;;;;5.47;3.65;;;;;;;15.02;94.67;99957.72;4961774;28;20051;-81
2023/07/05 04:01:55;;;;;;;9.63;3.90;;;;;;;14.88;95.21;99970.84;4959745;28;20521;-82
2023/07/05 04:04:23;;;;;;;6.78;4.05;;;;;;;14.83;96.08;99968.00;4963681;28;20083;-82
2023/07/05 04:06:50;;;;;;;4.70;3.40;;;;;;;14.80;95.42;99970.22;4966640;28;20157;-81
2023/07/05 04:09:16;;;;;;;6.35;3.80;;;;;;;14.74;95.93;99977.09;4959436;28;20130;-82
2023/07/05 04:11:43;;;;;;;5.85;3.88;;;;;;;14.65;95.60;99967.75;4967520;28;20082;-83
2023/07/05 04:14:10;;;;;;;4.63;3.42;;;;;;;14.65;96.18;99978.28;4970151;28;20070;-84
2023/07/05 04:16:36;;;;;;;5.53;3.55;;;;;;;14.62;96.13;99983.16;4968322;28;20070;-82
2023/07/05 04:19:03;;;;;;;7.35;3.50;;;;;;;14.61;96.58;99982.34;4955487;29;20147;-82
2023/07/05 04:21:31;;;;;;;7.38;4.00;;;;;;;14.59;97.04;99981.75;4967090;28;20057;-82
2023/07/05 04:23:59;;;;;;;6.15;3.65;;;;;;;14.62;97.78;99997.13;4965905;28;20499;-80
2023/07/05 04:26:28;;;;;;;6.90;3.60;;;;;;;14.71;98.21;100000.38;4961182;28;20054;-80
2023/07/05 04:28:56;;;;;;;7.13;4.60;;;;;;;14.73;98.28;100007.06;4959027;28;20054;-80
2023/07/05 04:31:27;;;;;;;5.60;3.80;;;;;;;14.81;98.52;100014.81;4959180;28;20424;-81
2023/07/05 04:33:54;;;;;;;7.22;3.80;;;;;;;14.88;96.68;100018.28;4958850;29;20050;-80
2023/07/05 04:36:21;;;;;;;5.60;3.85;;;;;;;14.94;96.12;100006.94;4959676;28;20115;-80
2023/07/05 04:38:49;;;;;;;6.72;3.97;;;;;;;15.03;94.98;100009.41;4959131;28;20475;-80
2023/07/05 04:41:15;;;;;;;5.05;3.70;;;;;;;15.17;93.80;100022.38;4959973;28;20130;-80
2023/07/05 04:43:42;;;;;;;6.93;3.92;;;;;;;15.28;92.88;100005.16;4958556;28;20055;-80
2023/07/05 04:46:08;;;;;;;8.40;3.85;;;;;;;15.35;93.39;100016.53;4958821;29;20511;-77
2023/07/05 04:48:35;;;;;;;6.70;4.43;;;;;;;15.35;92.23;100015.72;4959376;29;20061;-79
2023/07/05 04:51:04;;;;;;;5.68;4.20;;;;;;;15.30;91.78;100018.13;4958747;29;20051;-81
2023/07/05 04:53:31;;;;;;;6.82;4.15;;;;;;;15.33;89.90;100018.53;4953423;28;20087;-80
2023/07/05 04:56:02;;;;;;;6.28;4.38;;;;;;;15.28;90.17;100005.16;4956816;29;20558;-77
2023/07/05 04:58:29;;;;;;;8.90;4.63;;;;;;;15.30;89.31;100016.31;4955778;28;20411;-79
2023/07/05 05:01:02;;;;;;;7.25;4.10;;;;;;;15.33;88.94;100015.91;4956195;28;20051;-79
2023/07/05 05:03:28;;;;;;;;;;;;;;;15.24;87.16;100001.31;4957057;28;20512;-79
2023/07/05 05:05:55;;;;;;;8.00;4.60;;;;;;;15.40;87.66;100016.72;4948007;29;20013;-78
2023/07/05 05:08:23;;;;;;;7.25;4.43;;;;;;;15.62;87.18;100017.34;4955753;28;20536;-78
2023/07/05 05:10:51;;;;;;;9.60;4.50;;;;;;;15.66;86.01;100013.31;4956141;28;20047;-79
2023/07/05 05:13:19;;;;;;;6.55;4.30;;;;;;;15.71;84.89;99995.03;4955246;28;20047;-79
2023/07/05 05:15:46;;;;;;;8.45;5.10;;;;;;;15.59;84.62;100005.41;4954128;28;20138;-80
2023/07/05 05:18:14;;;;;;;7.40;4.70;;;;;;;15.55;84.58;99998.91;4947068;29;20090;-78
2023/07/05 05:20:41;;;;;;;7.80;5.10;;;;;;;15.65;84.56;100010.88;4954541;29;20053;-79
2023/07/05 05:23:08;;;;;;;7.95;5.20;;;;;;;15.52;84.65;100004.56;4953603;28;20055;-78
2023/07/05 05:25:35;;;;;;;7.20;4.80;;;;;;;15.73;84.03;100014.09;4953204;28;20123;-78
2023/07/05 05:28:02;;;;;;;7.07;5.45;;;;;;;16.39;83.05;100013.16;4953282;28;20047;-79
2023/07/05 05:30:31;;;;;;;7.63;4.75;;;;;;;17.01;80.38;100020.41;4953160;28;20146;-77
2023/07/05 05:32:58;;;;;;;6.28;5.00;;;;;;;16.67;80.04;100010.22;4953520;28;20047;-79
2023/07/05 05:35:24;;;;;;;8.63;5.18;;;;;;;17.15;79.53;100023.75;4952839;28;20134;-78
2023/07/05 05:37:51;;;;;;;10.40;5.55;;;;;;;16.91;80.25;100023.50;4952857;28;20054;-76
2023/07/05 05:40:17;;;;;;;10.50;4.90;;;;;;;17.77;77.86;100008.88;4945381;29;20059;-80
2023/07/05 05:42:44;;;;;;;8.55;4.90;;;;;;;17.75;77.10;100013.56;4952248;28;20047;-78
2023/07/05 05:45:11;;;;;;;8.50;4.80;;;;;;;17.09;77.10;100006.91;4952547;28;20055;-77
2023/07/05 05:47:39;;;;;;;6.60;4.72;;;;;;;17.35;77.68;100021.81;4953331;28;20610;-76
2023/07/05 05:50:07;;;;;;;6.70;4.80;;;;;;;18.78;73.80;100014.47;4954393;28;20055;-78
2023/07/05 05:52:34;;;;;;;7.13;4.93;;;;;;;18.87;71.49;100010.47;4955836;29;20085;-79
2023/07/05 05:55:01;;;;;;;6.25;4.82;;;;;;;19.07;70.98;100022.63;4947964;28;20193;-78
2023/07/05 05:57:27;;;;;;;6.75;4.88;;;;;;;18.16;72.60;100032.28;4956053;29;20051;-77
2023/07/05 05:59:54;;;;;;;6.07;4.60;;;;;;;17.05;74.24;100026.88;4955816;29;20051;-78
2023/07/05 06:02:21;;;;;;;7.68;4.30;;;;;;;16.51;76.11;100045.84;4955225;29;20051;-78
2023/07/05 06:04:49;;;;;;;6.70;4.63;;;;;;;16.07;77.47;100049.97;4955200;29;20134;-78
2023/07/05 06:07:15;;;;;;;7.43;4.43;;;;;;;15.96;78.19;100055.91;4948253;29;20164;-80
2023/07/05 06:09:45;;;;;;;11.05;4.70;;;;;;;15.82;78.80;100060.38;4955266;28;20078;-77
2023/07/05 06:12:12;;;;;;;9.43;4.68;;;;;;;15.64;79.31;100049.63;4954635;29;20078;-78
2023/07/05 06:14:38;;;;;;;7.05;4.32;;;;;;;15.62;79.11;100056.09;4954920;28;20489;-78
2023/07/05 06:17:05;;;;;;;8.73;4.57;;;;;;;15.62;78.71;100059.56;4953358;29;20130;-78
2023/07/05 06:19:32;;;;;;;6.47;4.38;;;;;;;15.70;78.76;100069.09;4953456;28;20126;-77
2023/07/05 06:22:01;;;;;;;7.38;4.88;;;;;;;15.88;77.78;100056.94;4954986;29;20091;-79
2023/07/05 06:24:27;;;;;;;8.60;4.32;;;;;;;15.90;76.84;100057.53;4956325;28;20085;-79
2023/07/05 06:26:54;;;;;;;6.53;4.30;;;;;;;16.35;76.38;100067.41;4956500;28;20111;-78
2023/07/05 06:29:20;;;;;;;14.52;4.53;;;;;;;16.41;75.08;100053.38;4949692;29;20126;-79
2023/07/05 06:31:47;;;;;;;9.75;3.90;;;;;;;16.34;75.37;100055.22;4958200;28;20111;-81
2023/07/05 06:34:14;;;;;;;9.25;4.13;;;;;;;16.05;75.80;100059.97;4958562;29;20538;-80
2023/07/05 06:36:41;;;;;;;7.65;4.32;;;;;;;15.93;77.33;100064.22;4959259;28;20079;-79
2023/07/05 06:39:09;;;;;;;6.65;3.80;;;;;;;15.92;78.24;100065.25;4957424;29;20051;-80
2023/07/05 06:41:35;;;;;;;7.57;4.00;;;;;;;16.11;79.07;100085.50;4956548;28;20130;-80
2023/07/05 06:44:02;;;;;;;7.32;4.28;;;;;;;16.08;78.05;100062.16;4957586;29;20114;-78
2023/07/05 06:46:29;;;;;;;7.47;3.92;;;;;;;16.01;77.90;100050.81;4958112;29;20055;-79
2023/07/05 06:48:55;;;;;;;7.90;3.80;;;;;;;16.16;77.98;100061.13;4957429;28;20130;-80
2023/07/05 06:51:24;;;;;;;8.55;3.92;;;;;;;16.21;77.92;100064.78;4957971;29;20055;-79
2023/07/05 06:53:51;;;;;;;7.22;4.22;;;;;;;17.81;73.03;100087.59;4958554;28;20130;-79
2023/07/05 06:56:19;;;;;;;8.63;3.72;;;;;;;18.82;69.65;100073.94;4954404;29;20114;-79
2023/07/05 06:58:48;;;;;;;5.82;3.95;;;;;;;18.78;69.61;100082.56;4961406;28;20051;-81
2023/07/05 07:01:14;;;;;;;8.50;3.95;;;;;;;19.30;68.27;100089.00;4959850;29;20051;-79
2023/07/05 07:03:41;;;;;;;6.60;3.45;;;;;;;18.19;69.78;100090.09;4957543;28;20058;-80
2023/07/05 07:06:08;;;;;;;9.15;3.78;;;;;;;17.49;72.25;100107.94;4958167;28;20133;-79
2023/07/05 07:08:35;;;;;;;7.38;3.80;;;;;;;16.82;74.44;100111.16;4957103;29;20051;-80
2023/07/05 07:11:03;;;;;;;4.90;3.50;;;;;;;16.78;75.97;100123.97;4957957;29;20098;-79
2023/07/05 07:13:32;;;;;;;7.95;4.10;;;;;;;16.65;76.37;100112.63;4957441;28;20051;-78
2023/07/05 07:16:00;;;;;;;6.55;3.80;;;;;;;16.55;76.40;100113.03;4952381;29;20059;-78
2023/07/05 07:18:27;;;;;;;9.02;3.67;;;;;;;16.36;76.36;100114.72;4949402;29;20050;-78
2023/07/05 07:20:54;;;;;;;8.07;3.53;;;;;;;16.43;76.64;100117.34;4954010;28;20142;-79
2023/07/05 07:23:21;;;;;;;6.63;3.90;;;;;;;16.47;77.42;100108.81;4953793;29;20057;-78
2023/07/05 07:25:48;;;;;;;5.95;3.53;;;;;;;17.14;75.72;100106.75;4953969;28;20423;-79
2023/07/05 07:28:14;;;;;;;8.77;3.50;;;;;;;16.91;74.71;100112.56;4953523;29;20142;-77
2023/07/05 07:30:42;;;;;;;6.93;3.10;;;;;;;16.59;75.42;100111.59;4953546;29;20542;-78
2023/07/05 07:33:09;;;;;;;8.70;3.50;;;;;;;16.68;75.80;100126.25;4953889;28;20231;-77
2023/07/05 07:35:35;;;;;;;6.25;3.30;;;;;;;16.57;75.94;100125.00;4953507;28;20051;-78
2023/07/05 07:38:02;;;;;;;6.13;3.50;;;;;;;16.42;76.55;100115.72;4953409;28;20051;-79
2023/07/05 07:40:28;;;;;;;12.52;3.60;;;;;;;16.34;76.51;100127.31;4953528;29;20062;-78
2023/07/05 07:42:55;;;;;;;5.43;2.97;;;;;;;16.23;76.97;100141.13;4953845;28;20123;-78
2023/07/05 07:45:21;;;;;;;5.57;3.00;;;;;;;16.56;76.29;100147.16;4953781;28;20138;-78
2023/07/05 07:47:49;;;;;;;5.32;3.20;;;;;;;16.71;75.06;100128.47;4952860;28;20084;-78
2023/07/05 07:50:16;;;;;;;7.80;3.30;;;;;;;16.61;74.95;100133.34;4953608;28;20057;-79
2023/07/05 07:52:43;;;;;;;6.85;3.35;;;;;;;16.65;74.77;100145.16;4953951;28;20047;-77
2023/07/05 07:55:10;;;;;;;6.60;3.13;;;;;;;16.59;75.36;100135.38;4954019;28;20134;-78
2023/07/05 07:57:36;;;;;;;8.98;3.10;;;;;;;17.19;74.44;100149.22;4950080;29;20062;-78
2023/07/05 08:00:08;;;;;;;7.40;3.00;;;;;;;17.32;73.44;100156.28;4953360;28;20098;-78
2023/07/05 08:02:34;;;;;;;8.38;2.80;;;;;;;16.87;73.42;100146.50;4953486;28;20573;-78
2023/07/05 08:05:03;;;;;;;6.38;3.00;;;;;;;16.72;74.12;100164.44;4957210;28;20051;-78
2023/07/05 08:07:31;;;;;;;11.32;3.20;;;;;;;16.64;74.49;100164.66;4958003;28;20055;-79
2023/07/05 08:09:59;;;;;;;5.85;3.05;;;;;;;17.23;73.53;100169.75;4958188;28;20134;-79
2023/07/05 08:12:27;;;;;;;6.70;2.65;;;;;;;17.39;72.18;100168.47;4949396;29;20134;-79
2023/07/05 08:14:54;;;;;;;13.80;3.28;;;;;;;18.04;69.90;100177.00;4958422;28;20047;-78
2023/07/05 08:17:21;;;;;;;12.10;3.40;;;;;;;18.37;70.13;100191.81;4958583;28;20157;-79
2023/07/05 08:19:49;;;;;;;10.00;3.10;;;;;;;18.71;68.88;100182.53;4957735;29;20185;-77
2023/07/05 08:22:17;;;;;;;7.47;3.13;;;;;;;18.87;66.86;100182.78;4957752;28;20047;-79
2023/07/05 08:24:44;;;;;;;5.70;2.75;;;;;;;18.52;67.93;100200.22;4957579;28;20151;-79
2023/07/05 08:27:11;;;;;;;7.35;3.17;;;;;;;17.88;68.34;100188.94;4957162;29;20063;-79
2023/07/05 08:29:37;;;;;;;5.57;3.13;;;;;;;18.00;68.78;100198.81;4957799;29;20051;-78
2023/07/05 08:32:05;;;;;;;15.77;3.28;;;;;;;17.87;68.98;100194.44;4961203;28;20057;-80
2023/07/05 08:34:32;;;;;;;8.32;3.25;;;;;;;18.00;69.28;100207.56;4960952;29;20086;-80
2023/07/05 08:36:58;;;;;;;7.65;3.83;;;;;;;17.95;68.72;100209.28;4959647;29;20106;-80
2023/07/05 08:39:26;;;;;;;8.77;3.10;;;;;;;17.48;69.45;100198.13;4960536;29;20111;-77
2023/07/05 08:42:07;;;;;;;8.95;3.25;;;;;;;18.59;67.56;100206.28;4951757;28;20048;-78
2023/07/05 08:44:46;;;;;;;10.85;2.67;;;;;;;19.38;64.76;100212.56;4959163;29;20087;-79
2023/07/05 08:47:23;;;;;;;9.30;3.22;;;;;;;20.30;63.10;100194.50;4958247;29;20239;-79
2023/07/05 08:50:01;;;;;;;8.02;3.00;;;;;;;19.99;62.46;100184.97;4957686;29;20114;-79
2023/07/05 08:52:32;;;;;;;14.30;2.80;;;;;;;19.71;63.99;100220.94;4957134;28;20043;-78
2023/07/05 08:55:08;;;;;;;12.10;3.10;;;;;;;20.32;62.22;100216.34;4956718;29;20137;-76
2023/07/05 08:57:43;;;;;;;6.60;2.80;;;;;;;20.43;61.24;100212.88;4956539;29;20051;-78
2023/07/05 09:00:15;;;;;;;13.50;3.60;;;;;;;19.50;62.42;100224.84;4948515;29;20427;-78
2023/07/05 09:02:41;;;;;;;11.60;4.53;;;;;;;20.15;61.40;100219.66;4956611;28;20051;-79
2023/07/05 09:05:15;;;;;;;9.70;2.75;;;;;;;20.21;61.47;100232.03;4957453;28;20047;-76
2023/07/05 09:07:51;;;;;;;15.05;3.50;;;;;;;20.01;61.24;100222.72;4958053;28;20051;-77
2023/07/05 09:10:26;;;;;;;13.15;3.30;;;;;;;20.81;59.95;100237.16;4957754;29;20599;-78
2023/07/05 09:13:05;;;;;;;7.43;2.70;;;;;;;21.27;59.19;100218.72;4955550;28;20079;-79
2023/07/05 09:15:37;;;;;;;14.20;3.20;;;;;;;20.47;59.33;100235.31;4959186;28;20138;-79
2023/07/05 09:18:10;;;;;;;11.82;3.33;;;;;;;20.13;61.52;100239.50;4950445;29;20118;-77
2023/07/05 09:20:52;;;;;;;15.57;3.40;;;;;;;20.66;60.03;100263.41;4961616;28;20075;-80
2023/07/05 09:23:22;;;;;;;10.33;3.43;;;;;;;20.13;61.49;100250.94;4971133;29;20043;-79
2023/07/05 09:25:53;;;;;;;14.00;3.47;;;;;;;20.07;61.33;100262.47;4968668;29;20321;-78
2023/07/05 09:28:23;;;;;;;15.98;3.50;;;;;;;19.47;62.54;100262.44;4963930;29;20094;-78
2023/07/05 09:30:51;;;;;;;10.93;3.53;;;;;;;19.30;61.96;100264.09;4970726;29;20051;-78
2023/07/05 09:33:21;;;;;;;14.73;3.22;;;;;;;19.13;62.65;100271.00;4968506;28;20078;-79
2023/07/05 09:35:48;;;;;;;13.60;3.33;;;;;;;20.07;61.88;100275.75;4969576;29;20051;-79
2023/07/05 09:38:22;;;;;;;8.98;3.65;;;;;;;19.98;60.69;100263.03;4973169;29;20083;-79
2023/07/05 09:40:55;;;;;;;19.33;3.15;;;;;;;20.19;60.86;100271.28;4977071;28;20051;-80
2023/07/05 09:43:28;;;;;;;14.20;3.20;;;;;;;20.38;60.85;100280.00;4976928;29;20063;-80
2023/07/05 09:45:55;;;;;;;20.77;3.55;;;;;;;21.41;59.18;100295.38;4975455;28;20078;-79
2023/07/05 09:48:22;;;;;;;16.25;3.63;;;;;;;21.83;57.70;100271.16;4975900;28;20066;-79
2023/07/05 09:50:52;;;;;;;14.88;3.80;;;;;;;21.09;57.87;100286.16;4975959;28;20061;-79
2023/07/05 09:53:39;;;;;;;12.40;3.17;;;;;;;20.67;57.99;100283.63;4964944;28;20051;-79
2023/07/05 09:56:10;;;;;;;15.63;3.13;;;;;;;20.32;58.06;100280.88;4969057;28;20058;-80
2023/07/05 09:58:37;;;;;;;11.77;3.25;;;;;;;19.59;59.87;100289.06;4959885;28;20058;-80
2023/07/05 10:01:05;;;;;;;22.45;4.53;;;;;;;20.25;60.33;100293.50;4959126;28;20047;-79
2023/07/05 10:03:37;;;;;;;12.18;3.70;;;;;;;20.90;58.67;100300.63;4959390;28;20051;-80
2023/07/05 10:06:07;;;;;;;22.58;4.50;;;;;;;20.48;58.64;100295.41;4959705;28;20322;-80
2023/07/05 10:08:43;;;;;;;11.07;3.83;;;;;;;20.07;59.69;100307.63;4958605;28;20051;-79
2023/07/05 10:11:23;;;;;;;11.23;3.65;;;;;;;20.35;58.96;100295.56;4951192;29;20057;-80
2023/07/05 10:14:03;;;;;;;21.60;3.90;;;;;;;20.04;59.59;100304.63;4957869;28;20043;-80
2023/07/05 10:16:49;;;;;;;10.48;3.38;;;;;;;19.83;58.96;100297.97;4957817;28;20058;-80
2023/07/05 10:19:30;;;;;;;21.27;4.32;;;;;;;19.58;59.11;100306.03;4956358;29;20055;-79
2023/07/05 10:22:04;;;;;;;13.93;3.55;;;;;;;19.82;59.21;100299.00;4962558;29;20097;-79
2023/07/05 10:24:33;;;;;;;14.23;3.75;;;;;;;19.73;59.14;100318.94;4957711;28;20102;-80
2023/07/05 10:27:09;;;;;;;21.48;3.90;;;;;;;19.59;58.94;100310.31;4957775;28;20055;-79
2023/07/05 10:29:36;;;;;;;18.05;4.22;;;;;;;19.93;58.81;100323.97;4957352;29;20057;-80
2023/07/05 10:32:03;;;;;;;15.90;4.28;;;;;;;19.99;57.85;100313.25;4957674;28;20058;-79
2023/07/05 10:34:31;;;;;;;11.77;3.45;;;;;;;20.34;57.26;100316.00;4957581;29;20127;-80
2023/07/05 10:36:58;;;;;;;10.25;3.38;;;;;;;20.35;55.89;100303.53;4957182;29;20776;-80
2023/07/05 10:39:27;;;;;;;13.18;3.75;;;;;;;20.34;56.98;100312.53;4958295;28;20043;-80
2023/07/05 10:41:57;;;;;;;15.60;3.53;;;;;;;20.32;57.24;100317.31;4956887;28;20063;-80
2023/07/05 10:44:31;;;;;;;10.63;3.53;;;;;;;19.94;56.94;100321.09;4957239;28;20058;-79
2023/07/05 10:46:59;;;;;;;14.20;3.30;;;;;;;20.13;57.45;100332.47;4954423;29;20130;-80
2023/07/05 10:49:28;;;;;;;17.20;3.63;;;;;;;20.37;56.61;100320.88;4957073;28;20051;-79
2023/07/05 10:52:00;;;;;;;11.38;3.15;;;;;;;20.03;56.42;100324.25;4956551;29;20499;-79
2023/07/05 10:54:34;;;;;;;10.55;3.38;;;;;;;20.28;57.41;100329.41;4955751;28;20047;-80
2023/07/05 10:57:06;;;;;;;10.80;3.40;;;;;;;20.16;57.84;100332.03;4955662;28;20520;-78
2023/07/05 10:59:37;;;;;;;;;;;;;;;20.06;56.97;100335.22;4959054;28;20098;-78
2023/07/05 11:02:21;;;;;;;12.98;3.95;;;;;;;20.07;57.07;100342.16;4950718;29;20361;-80
2023/07/05 11:04:50;;;;;;;12.60;3.60;;;;;;;20.72;57.00;100339.59;4958566;28;20471;-79
2023/07/05 11:07:19;;;;;;;21.90;3.50;;;;;;;20.92;56.49;100349.88;4957681;29;20055;-80
2023/07/05 11:09:46;;;;;;;9.65;3.30;;;;;;;20.48;56.84;100337.91;4957062;29;20494;-80
2023/07/05 11:12:20;;;;;;;10.20;3.08;;;;;;;20.49;57.13;100343.00;4956950;28;20133;-79
2023/07/05 11:14:49;;;;;;;12.45;3.70;;;;;;;20.28;57.29;100348.03;4957649;29;20052;-80
2023/07/05 11:17:25;;;;;;;10.60;3.45;;;;;;;20.27;57.88;100359.69;4956884;28;20075;-80
2023/07/05 11:19:52;;;;;;;12.35;3.28;;;;;;;20.85;57.28;100351.84;4957255;29;20426;-78
2023/07/05 11:22:39;;;;;;;12.57;3.13;;;;;;;21.18;55.90;100353.94;4957597;28;20610;-79
2023/07/05 11:25:13;;;;;;;13.68;3.20;;;;;;;21.45;54.73;100344.44;4952289;29;20391;-82
2023/07/05 11:27:54;;;;;;;9.15;3.83;;;;;;;21.41;54.78;100337.16;4958933;29;20062;-80
2023/07/05 11:30:43;;;;;;;10.95;3.45;;;;;;;22.04;54.81;100358.44;4959717;28;20093;-79
2023/07/05 11:33:16;;;;;;;11.95;4.15;;;;;;;21.77;54.43;100334.16;4947953;29;20056;-81
2023/07/05 11:35:45;;;;;;;15.18;4.00;;;;;;;21.50;54.95;100336.56;4951456;29;20067;-80